Time;durP1;ratioP1;P1;durP2;ratioP2;P2;SDS_P1;SDS_P2;PMS_P1;PMS_P2;Temp;Humidity;BMP_temperature;BMP_pressure;BME280_temperature;BME280_humidity;BME280_pressure;Samples;Min_cycle;Max_cycle;Signal;HPM_P1;HPM_P2
2022/07/23 00:00:09;;;;;;;8.50;7.80;;;25.70;84.20;;;;;;5094843;28;20436;-68
2022/07/23 00:02:37;;;;;;;8.33;7.63;;;25.70;84.60;;;;;;5094739;28;20977;-68
2022/07/23 00:05:05;;;;;;;8.37;7.67;;;25.80;84.90;;;;;;5094628;28;20543;-68
2022/07/23 00:07:32;;;;;;;8.10;7.40;;;25.70;87.00;;;;;;5094520;28;20483;-68
2022/07/23 00:09:58;;;;;;;8.20;7.53;;;25.60;86.20;;;;;;5094746;28;20790;-68
2022/07/23 00:12:26;;;;;;;8.37;7.70;;;25.50;86.60;;;;;;5094540;28;20882;-68
2022/07/23 00:14:53;;;;;;;8.37;7.67;;;25.60;85.20;;;;;;5094161;28;20471;-68
2022/07/23 00:17:19;;;;;;;7.50;6.90;;;25.60;84.20;;;;;;5094528;28;20526;-68
2022/07/23 00:19:48;;;;;;;8.23;7.60;;;25.60;84.70;;;;;;5094586;28;20780;-68
2022/07/23 00:22:15;;;;;;;7.70;7.03;;;25.60;84.60;;;;;;5094582;28;20862;-68
2022/07/23 00:24:41;;;;;;;7.00;6.50;;;25.60;84.50;;;;;;5094303;28;20499;-68
2022/07/23 00:27:08;;;;;;;7.33;6.80;;;25.50;84.40;;;;;;5094521;28;20527;-68
2022/07/23 00:29:35;;;;;;;6.37;5.87;;;25.50;84.20;;;;;;5094277;28;20444;-70
2022/07/23 00:32:02;;;;;;;6.60;6.13;;;25.60;83.80;;;;;;5094267;28;20564;-68
2022/07/23 00:34:29;;;;;;;6.50;6.00;;;25.60;82.70;;;;;;5094111;28;20487;-68
2022/07/23 00:36:57;;;;;;;6.60;6.10;;;25.60;82.80;;;;;;5094254;28;20490;-68
2022/07/23 00:39:24;;;;;;;6.67;6.10;;;25.60;83.50;;;;;;5094238;28;20432;-68
2022/07/23 00:41:52;;;;;;;8.00;6.20;;;25.40;83.70;;;;;;5094201;28;20543;-68
2022/07/23 00:44:21;;;;;;;6.87;6.37;;;25.50;85.90;;;;;;5093938;28;20499;-69
2022/07/23 00:46:52;;;;;;;6.90;6.30;;;25.30;91.10;;;;;;5094141;28;20534;-68
2022/07/23 00:49:20;;;;;;;7.00;6.50;;;25.20;92.70;;;;;;5093966;28;20933;-69
2022/07/23 00:51:48;;;;;;;6.53;6.03;;;25.00;92.10;;;;;;5093828;28;20475;-68
2022/07/23 00:54:17;;;;;;;7.20;6.50;;;24.70;93.50;;;;;;5093444;28;20513;-68
2022/07/23 00:56:45;;;;;;;7.00;6.40;;;24.60;94.00;;;;;;5093859;28;20534;-68
2022/07/23 00:59:12;;;;;;;6.77;6.27;;;24.50;93.80;;;;;;5093765;28;20466;-68
2022/07/23 01:01:39;;;;;;;6.97;6.47;;;24.50;95.10;;;;;;5093897;28;20438;-68
2022/07/23 01:04:06;;;;;;;6.47;5.97;;;24.40;94.00;;;;;;5093368;28;20558;-68
2022/07/23 01:06:36;;;;;;;6.90;6.40;;;24.40;94.40;;;;;;5093734;28;20481;-68
2022/07/23 01:09:05;;;;;;;6.90;6.30;;;24.40;94.00;;;;;;5093796;28;20443;-68
2022/07/23 01:11:34;;;;;;;7.00;6.50;;;24.30;94.40;;;;;;5093627;28;20568;-68
2022/07/23 01:14:09;;;;;;;6.47;5.97;;;24.30;94.50;;;;;;5093558;28;20893;-68
2022/07/23 01:16:36;;;;;;;7.03;6.53;;;24.30;94.00;;;;;;5093571;28;20442;-68
2022/07/23 01:19:06;;;;;;;6.57;6.00;;;24.40;94.20;;;;;;5093529;28;20530;-68
2022/07/23 01:21:35;;;;;;;6.43;5.83;;;24.40;94.60;;;;;;5093437;28;20447;-68
2022/07/23 01:24:04;;;;;;;6.47;5.97;;;24.30;94.40;;;;;;5093330;28;20769;-68
2022/07/23 01:26:31;;;;;;;7.20;6.60;;;24.30;93.50;;;;;;5093617;28;20442;-68
2022/07/23 01:28:57;;;;;;;6.50;6.00;;;24.40;94.20;;;;;;5093461;28;21012;-68
2022/07/23 01:31:24;;;;;;;6.80;6.20;;;24.30;93.50;;;;;;5093538;28;20477;-68
2022/07/23 01:33:51;;;;;;;6.77;6.17;;;24.30;93.80;;;;;;5093233;28;20556;-68
2022/07/23 01:36:18;;;;;;;6.90;6.20;;;24.30;94.20;;;;;;5093420;28;20530;-68
2022/07/23 01:38:45;;;;;;;7.20;6.60;;;24.30;94.20;;;;;;5093524;28;20443;-68
2022/07/23 01:41:13;;;;;;;6.37;5.87;;;24.20;94.20;;;;;;5093523;28;20437;-68
2022/07/23 01:43:40;;;;;;;7.03;6.33;;;24.20;93.90;;;;;;5093413;28;20882;-68
2022/07/23 01:46:07;;;;;;;6.80;6.30;;;24.10;93.80;;;;;;5093417;28;20534;-68
2022/07/23 01:48:34;;;;;;;6.87;6.37;;;24.20;94.30;;;;;;5093427;28;20756;-68
2022/07/23 01:51:01;;;;;;;6.53;5.97;;;24.30;94.00;;;;;;5093246;28;20559;-68
2022/07/23 01:53:30;;;;;;;6.63;6.13;;;24.30;94.40;;;;;;5093227;28;20478;-68
2022/07/23 01:55:57;;;;;;;6.90;6.40;;;24.50;94.00;;;;;;5093206;28;20458;-68
2022/07/23 01:58:26;;;;;;;6.73;6.13;;;24.60;93.90;;;;;;5093109;28;20887;-68
2022/07/23 02:00:53;;;;;;;6.77;6.27;;;24.50;94.20;;;;;;5093207;28;20888;-69
2022/07/23 02:03:20;;;;;;;6.87;6.37;;;24.50;93.90;;;;;;5093252;28;20558;-68
2022/07/23 02:05:47;;;;;;;6.90;6.30;;;24.50;93.30;;;;;;5093133;28;20450;-68
2022/07/23 02:08:14;;;;;;;7.20;6.70;;;24.40;93.20;;;;;;5092995;28;20955;-68
2022/07/23 02:10:41;;;;;;;6.60;6.10;;;24.40;92.70;;;;;;5096758;28;20533;-68
2022/07/23 02:13:08;;;;;;;7.30;6.70;;;24.50;92.70;;;;;;5097072;28;20572;-68
2022/07/23 02:15:36;;;;;;;6.63;6.13;;;24.50;92.60;;;;;;5096903;28;20530;-68
2022/07/23 02:18:04;;;;;;;6.40;5.90;;;24.60;92.60;;;;;;5096993;28;20444;-68
2022/07/23 02:20:30;;;;;;;7.57;7.03;;;24.60;92.50;;;;;;5096911;28;20440;-68
2022/07/23 02:22:57;;;;;;;6.70;6.20;;;24.70;92.50;;;;;;5096545;28;20543;-68
2022/07/23 02:25:24;;;;;;;6.60;6.10;;;24.70;92.70;;;;;;5096619;28;20538;-68
2022/07/23 02:27:51;;;;;;;6.80;6.20;;;24.80;92.80;;;;;;5096483;28;20482;-68
2022/07/23 02:30:18;;;;;;;6.27;5.77;;;24.80;92.80;;;;;;5096694;28;20530;-68
2022/07/23 02:32:46;;;;;;;6.63;6.13;;;24.80;92.80;;;;;;5096528;28;20566;-68
2022/07/23 02:35:13;;;;;;;7.33;6.77;;;24.70;93.00;;;;;;5096502;28;20550;-68
2022/07/23 02:37:40;;;;;;;7.13;6.53;;;24.70;93.40;;;;;;5096814;28;20466;-68
2022/07/23 02:40:08;;;;;;;6.97;6.37;;;24.70;92.80;;;;;;5096503;28;20481;-69
2022/07/23 02:42:34;;;;;;;6.80;6.30;;;24.60;93.00;;;;;;5096292;28;20941;-68
2022/07/23 02:45:01;;;;;;;6.93;6.43;;;24.60;92.90;;;;;;5095914;28;20875;-68
2022/07/23 02:47:28;;;;;;;6.77;6.27;;;24.60;93.00;;;;;;5096297;28;20941;-68
2022/07/23 02:49:57;;;;;;;7.30;6.60;;;24.60;93.10;;;;;;5096486;28;20536;-68
2022/07/23 02:52:23;;;;;;;6.90;6.30;;;24.50;93.00;;;;;;5096147;28;20577;-68
2022/07/23 02:54:50;;;;;;;7.13;6.60;;;24.50;93.30;;;;;;5095685;28;20562;-68
2022/07/23 02:57:17;;;;;;;6.70;6.20;;;24.40;93.30;;;;;;5096337;28;20449;-68
2022/07/23 02:59:44;;;;;;;6.90;6.40;;;24.40;93.40;;;;;;5096122;28;20535;-69
2022/07/23 03:02:11;;;;;;;7.30;6.70;;;24.40;93.50;;;;;;5096162;28;20521;-68
2022/07/23 03:04:38;;;;;;;6.63;6.03;;;24.30;93.60;;;;;;5095823;28;20548;-68
2022/07/23 03:07:06;;;;;;;6.90;6.40;;;24.20;93.80;;;;;;5096032;28;20528;-68
2022/07/23 03:09:33;;;;;;;7.50;6.80;;;24.20;93.80;;;;;;5095988;28;20450;-68
2022/07/23 03:12:00;;;;;;;7.13;6.53;;;24.30;93.90;;;;;;5095781;28;20569;-68
2022/07/23 03:14:27;;;;;;;6.73;6.13;;;24.30;94.10;;;;;;5095425;28;21031;-68
2022/07/23 03:16:54;;;;;;;7.93;7.13;;;24.30;93.80;;;;;;5095532;28;20501;-68
2022/07/23 03:19:21;;;;;;;7.20;6.60;;;24.40;93.70;;;;;;5095542;28;20828;-68
2022/07/23 03:21:48;;;;;;;8.03;7.33;;;24.30;93.60;;;;;;5095159;28;20451;-68
2022/07/23 03:24:17;;;;;;;7.10;6.50;;;24.40;93.60;;;;;;5095360;28;20562;-68
2022/07/23 03:26:44;;;;;;;7.80;7.00;;;24.40;93.70;;;;;;5095512;28;20450;-68
2022/07/23 03:29:11;;;;;;;7.60;7.00;;;24.40;93.60;;;;;;5095637;28;20449;-68
2022/07/23 03:31:38;;;;;;;7.37;6.87;;;24.30;94.10;;;;;;5095458;28;20569;-68
2022/07/23 03:34:05;;;;;;;9.17;7.70;;;24.30;94.10;;;;;;5095276;28;20514;-68
2022/07/23 03:36:32;;;;;;;8.00;7.40;;;24.30;94.10;;;;;;5095372;28;20473;-68
2022/07/23 03:38:59;;;;;;;8.30;7.60;;;24.30;94.50;;;;;;5095469;28;20526;-68
2022/07/23 03:41:27;;;;;;;8.13;7.43;;;24.10;93.70;;;;;;5095210;28;20443;-68
2022/07/23 03:43:54;;;;;;;8.00;7.40;;;24.00;93.90;;;;;;5095048;28;20501;-68
2022/07/23 03:46:20;;;;;;;9.13;8.43;;;24.00;93.90;;;;;;5095108;28;20480;-68
2022/07/23 03:48:47;;;;;;;8.60;8.00;;;24.00;94.10;;;;;;5095198;28;20442;-68
2022/07/23 03:51:14;;;;;;;8.90;8.20;;;24.00;94.30;;;;;;5094754;28;20533;-68
2022/07/23 03:53:41;;;;;;;8.17;7.57;;;24.00;94.00;;;;;;5094760;28;20573;-69
2022/07/23 03:56:08;;;;;;;8.60;7.90;;;24.00;94.40;;;;;;5094900;28;20446;-68
2022/07/23 03:58:36;;;;;;;8.43;7.63;;;24.10;94.30;;;;;;5094734;28;20529;-68
2022/07/23 04:01:03;;;;;;;9.10;8.30;;;24.10;94.40;;;;;;5094750;28;20481;-68
2022/07/23 04:03:30;;;;;;;9.20;8.40;;;24.10;94.40;;;;;;5094810;28;20465;-68
2022/07/23 04:05:57;;;;;;;8.70;8.00;;;24.00;94.50;;;;;;5094669;28;20468;-68
2022/07/23 04:08:25;;;;;;;9.10;8.20;;;24.00;95.00;;;;;;5094797;28;20970;-68
2022/07/23 04:10:52;;;;;;;8.83;8.03;;;24.10;94.90;;;;;;5094728;28;20537;-68
2022/07/23 04:13:19;;;;;;;8.60;7.87;;;24.10;95.00;;;;;;5094580;28;20671;-68
2022/07/23 04:15:47;;;;;;;9.67;8.90;;;24.10;95.10;;;;;;5094508;28;20474;-68
2022/07/23 04:18:17;;;;;;;8.40;7.67;;;24.10;95.20;;;;;;5094626;28;20528;-68
2022/07/23 04:20:43;;;;;;;8.97;8.27;;;24.10;95.40;;;;;;5094555;28;20453;-68
2022/07/23 04:23:10;;;;;;;8.70;7.90;;;24.10;95.50;;;;;;5094403;28;20529;-68
2022/07/23 04:25:37;;;;;;;9.17;8.47;;;24.00;95.70;;;;;;5094291;28;20480;-68
2022/07/23 04:28:04;;;;;;;10.13;9.27;;;24.00;95.80;;;;;;5094444;28;20473;-68
2022/07/23 04:30:31;;;;;;;9.03;8.30;;;24.00;96.20;;;;;;5094233;28;20920;-68
2022/07/23 04:33:00;;;;;;;9.50;8.70;;;23.90;96.60;;;;;;5093259;28;20560;-68
2022/07/23 04:35:27;;;;;;;9.03;8.13;;;23.90;96.70;;;;;;5094334;28;20495;-68
2022/07/23 04:37:54;;;;;;;9.00;8.23;;;23.90;97.00;;;;;;5094003;28;20481;-68
2022/07/23 04:40:21;;;;;;;8.00;7.30;;;23.80;97.00;;;;;;5094225;28;20532;-68
2022/07/23 04:42:47;;;;;;;8.50;7.80;;;23.80;97.00;;;;;;5094642;28;20852;-68
2022/07/23 04:45:14;;;;;;;8.33;7.67;;;23.80;96.80;;;;;;5093742;28;20519;-69
2022/07/23 04:47:41;;;;;;;8.27;7.47;;;23.60;96.50;;;;;;5094000;28;20478;-68
2022/07/23 04:50:10;;;;;;;9.63;8.83;;;23.60;96.30;;;;;;5093961;28;20481;-68
2022/07/23 04:52:37;;;;;;;8.70;7.90;;;23.50;97.10;;;;;;5093586;28;20574;-69
2022/07/23 04:55:04;;;;;;;8.70;7.90;;;23.50;97.10;;;;;;5093769;28;20916;-68
2022/07/23 04:57:31;;;;;;;8.77;8.07;;;23.50;97.00;;;;;;5094058;28;20496;-68
2022/07/23 04:59:58;;;;;;;8.53;7.73;;;23.60;97.30;;;;;;5094095;28;20472;-68
2022/07/23 05:02:25;;;;;;;8.50;7.80;;;23.60;98.00;;;;;;5093891;28;20473;-68
2022/07/23 05:04:52;;;;;;;9.10;8.20;;;23.60;97.80;;;;;;5093458;28;20497;-68
2022/07/23 05:07:20;;;;;;;9.27;8.57;;;23.50;98.20;;;;;;5093925;28;20484;-68
2022/07/23 05:09:47;;;;;;;8.70;7.90;;;23.60;97.80;;;;;;5093654;28;20454;-68
2022/07/23 05:12:14;;;;;;;8.37;7.67;;;23.60;97.30;;;;;;5093929;28;20474;-68
2022/07/23 05:14:41;;;;;;;9.10;8.30;;;23.60;97.30;;;;;;5093555;28;20504;-68
2022/07/23 05:17:08;;;;;;;8.47;7.77;;;23.80;97.20;;;;;;5093787;28;20438;-68
2022/07/23 05:19:35;;;;;;;9.83;8.90;;;23.90;97.30;;;;;;5093431;28;20813;-68
2022/07/23 05:22:02;;;;;;;8.60;7.90;;;24.00;96.90;;;;;;5093703;28;20447;-68
2022/07/23 05:24:31;;;;;;;8.83;8.03;;;23.90;97.30;;;;;;5093156;28;20496;-68
2022/07/23 05:26:58;;;;;;;9.00;8.20;;;23.90;97.40;;;;;;5093604;28;20470;-68
2022/07/23 05:29:25;;;;;;;9.03;8.33;;;23.90;97.40;;;;;;5093592;28;20445;-68
2022/07/23 05:31:51;;;;;;;8.80;8.10;;;23.90;97.80;;;;;;5093471;28;20467;-68
2022/07/23 05:34:18;;;;;;;9.27;8.47;;;23.90;97.90;;;;;;5093100;28;20571;-68
2022/07/23 05:36:45;;;;;;;9.43;8.63;;;23.90;97.60;;;;;;5093320;28;20477;-68
2022/07/23 05:39:12;;;;;;;9.27;8.57;;;24.00;97.30;;;;;;5093356;28;20448;-68
2022/07/23 05:41:40;;;;;;;9.47;8.67;;;24.10;96.90;;;;;;5093478;28;20450;-68
2022/07/23 05:44:07;;;;;;;10.33;9.53;;;24.10;96.90;;;;;;5094282;28;20500;-68
2022/07/23 05:46:34;;;;;;;9.47;8.57;;;24.20;96.20;;;;;;5097446;28;20453;-68
2022/07/23 05:49:01;;;;;;;8.90;8.17;;;24.20;97.20;;;;;;5097259;28;20478;-68
2022/07/23 05:51:28;;;;;;;10.67;9.70;;;24.20;97.10;;;;;;5097463;28;20478;-68
2022/07/23 05:53:55;;;;;;;9.37;8.57;;;24.30;97.00;;;;;;5096646;28;20569;-68
2022/07/23 05:56:21;;;;;;;9.00;8.30;;;24.30;96.00;;;;;;5097225;28;20474;-68
2022/07/23 05:58:50;;;;;;;9.40;8.60;;;24.30;96.00;;;;;;5097309;28;20517;-69
2022/07/23 06:01:17;;;;;;;8.83;8.13;;;24.40;95.10;;;;;;5097213;28;20439;-68
2022/07/23 06:03:43;;;;;;;8.50;7.80;;;24.50;95.30;;;;;;5097069;28;20861;-69
2022/07/23 06:06:10;;;;;;;8.40;7.70;;;24.50;95.80;;;;;;5097158;28;20553;-68
2022/07/23 06:08:37;;;;;;;8.93;8.13;;;24.60;95.30;;;;;;5097128;28;20471;-68
2022/07/23 06:11:04;;;;;;;8.40;7.73;;;24.60;95.50;;;;;;5097018;28;20478;-68
2022/07/23 06:13:31;;;;;;;9.10;8.40;;;24.70;95.50;;;;;;5096554;28;20518;-68
2022/07/23 06:15:59;;;;;;;8.67;7.87;;;24.70;95.20;;;;;;5096818;28;20474;-68
2022/07/23 06:18:26;;;;;;;9.30;8.60;;;24.70;95.60;;;;;;5096725;28;20474;-68
2022/07/23 06:20:53;;;;;;;9.00;8.20;;;24.60;95.00;;;;;;5096719;28;20487;-68
2022/07/23 06:23:20;;;;;;;8.27;7.57;;;24.60;94.60;;;;;;5096593;28;21007;-68
2022/07/23 06:25:46;;;;;;;9.60;8.80;;;24.70;94.90;;;;;;5096593;28;20963;-68
2022/07/23 06:28:13;;;;;;;8.90;8.10;;;24.80;94.20;;;;;;5096670;28;20443;-68
2022/07/23 06:30:40;;;;;;;8.50;7.80;;;24.90;94.50;;;;;;5096709;28;20439;-68
2022/07/23 06:33:09;;;;;;;8.50;7.80;;;25.00;94.00;;;;;;5096520;28;20514;-68
2022/07/23 06:35:36;;;;;;;10.47;9.27;;;25.00;94.20;;;;;;5096303;28;20447;-68
2022/07/23 06:38:03;;;;;;;9.10;8.30;;;24.90;94.60;;;;;;5096524;28;21012;-68
2022/07/23 06:40:30;;;;;;;9.87;8.97;;;24.80;94.60;;;;;;5096443;28;20486;-68
2022/07/23 06:42:57;;;;;;;9.63;8.83;;;24.60;94.00;;;;;;5096307;28;20483;-68
2022/07/23 06:45:24;;;;;;;9.63;8.93;;;24.60;94.60;;;;;;5096255;28;20479;-68
2022/07/23 06:47:51;;;;;;;9.17;8.37;;;24.60;94.70;;;;;;5096402;28;20449;-68
2022/07/23 06:50:19;;;;;;;9.47;8.67;;;24.70;94.70;;;;;;5096189;28;20478;-68
2022/07/23 06:52:46;;;;;;;8.90;8.10;;;24.70;93.40;;;;;;5095963;28;20468;-68
2022/07/23 06:55:13;;;;;;;9.70;8.90;;;24.50;93.20;;;;;;5095331;28;20554;-68
2022/07/23 06:57:40;;;;;;;9.33;8.50;;;24.60;93.70;;;;;;5095891;28;20521;-68
2022/07/23 07:00:08;;;;;;;10.00;9.00;;;24.50;93.50;;;;;;5096154;28;20581;-68
2022/07/23 07:02:35;;;;;;;9.20;8.40;;;24.40;93.10;;;;;;5095914;28;20495;-68
2022/07/23 07:05:01;;;;;;;9.50;8.63;;;24.40;93.40;;;;;;5095593;28;21014;-67
2022/07/23 07:07:29;;;;;;;8.87;8.07;;;24.30;93.60;;;;;;5096142;28;20443;-68
2022/07/23 07:09:56;;;;;;;9.50;8.80;;;24.20;93.90;;;;;;5095871;28;20482;-68
2022/07/23 07:12:23;;;;;;;9.50;8.60;;;24.10;94.60;;;;;;5095884;28;20478;-68
2022/07/23 07:14:50;;;;;;;9.77;8.97;;;23.80;94.70;;;;;;5095502;28;21004;-68
2022/07/23 07:17:17;;;;;;;9.23;8.33;;;23.90;95.40;;;;;;5095647;28;20499;-68
2022/07/23 07:19:44;;;;;;;8.60;7.90;;;24.00;95.10;;;;;;5095696;28;20508;-68
2022/07/23 07:22:11;;;;;;;9.57;8.77;;;24.10;94.90;;;;;;5095699;28;20867;-68
2022/07/23 07:24:39;;;;;;;8.93;8.20;;;24.10;94.80;;;;;;5095426;28;20524;-68
2022/07/23 07:27:06;;;;;;;8.67;8.07;;;24.10;94.90;;;;;;5095748;28;20447;-68
2022/07/23 07:29:32;;;;;;;8.93;8.20;;;24.10;95.20;;;;;;5095511;28;20526;-68
2022/07/23 07:31:59;;;;;;;10.40;9.30;;;24.10;95.20;;;;;;5095522;28;20469;-68
2022/07/23 07:34:26;;;;;;;9.33;8.60;;;24.10;95.80;;;;;;5095220;28;20536;-68
2022/07/23 07:36:53;;;;;;;9.30;8.40;;;24.00;95.80;;;;;;5095303;28;20956;-69
2022/07/23 07:39:20;;;;;;;10.30;9.40;;;23.80;96.30;;;;;;5095384;28;20445;-68
2022/07/23 07:41:48;;;;;;;9.50;8.70;;;23.70;96.90;;;;;;5095294;28;20531;-68
2022/07/23 07:44:16;;;;;;;9.70;8.90;;;23.50;97.40;;;;;;5094761;28;20495;-68
2022/07/23 07:46:43;;;;;;;9.90;9.03;;;23.30;97.80;;;;;;5095210;28;20444;-68
2022/07/23 07:49:10;;;;;;;9.80;8.97;;;23.20;98.40;;;;;;5095186;28;20845;-67
2022/07/23 07:51:37;;;;;;;8.63;7.93;;;23.50;98.40;;;;;;5095133;28;20474;-68
2022/07/23 07:54:04;;;;;;;9.10;8.30;;;23.40;98.60;;;;;;5094559;28;20486;-68
2022/07/23 07:56:31;;;;;;;9.00;8.30;;;23.70;99.20;;;;;;5094853;28;20481;-68
2022/07/23 07:59:00;;;;;;;9.60;8.80;;;24.30;97.90;;;;;;5095449;28;20478;-68
2022/07/23 08:01:27;;;;;;;9.20;8.50;;;24.60;96.50;;;;;;5094822;28;20999;-68
2022/07/23 08:03:54;;;;;;;8.80;8.00;;;24.40;96.70;;;;;;5094574;28;20978;-68
2022/07/23 08:06:21;;;;;;;8.73;8.03;;;24.30;96.30;;;;;;5094830;28;20466;-68
2022/07/23 08:08:47;;;;;;;8.30;7.60;;;24.20;95.90;;;;;;5094789;28;20488;-68
2022/07/23 08:11:14;;;;;;;8.30;7.67;;;24.50;94.90;;;;;;5094735;28;20475;-68
2022/07/23 08:13:44;;;;;;;9.23;8.43;;;24.60;95.10;;;;;;5094505;28;20571;-68
2022/07/23 08:16:12;;;;;;;8.40;7.70;;;24.40;95.60;;;;;;5094706;28;20446;-68
2022/07/23 08:18:39;;;;;;;9.50;8.70;;;24.30;95.80;;;;;;5094541;28;20526;-68
2022/07/23 08:21:06;;;;;;;8.03;7.30;;;24.90;95.50;;;;;;5094598;28;20479;-68
2022/07/23 08:23:33;;;;;;;9.33;8.53;;;25.40;94.30;;;;;;5094492;28;20456;-68
2022/07/23 08:26:00;;;;;;;9.00;8.30;;;25.30;94.10;;;;;;5094347;28;20482;-68
2022/07/23 08:28:28;;;;;;;8.67;7.73;;;25.10;94.70;;;;;;5094427;28;20455;-68
2022/07/23 08:30:54;;;;;;;9.17;8.47;;;24.80;94.90;;;;;;5094354;28;20861;-68
2022/07/23 08:33:23;;;;;;;9.10;8.40;;;24.40;95.60;;;;;;5093994;28;20524;-68
2022/07/23 08:35:52;;;;;;;8.97;8.10;;;24.30;96.20;;;;;;5094112;28;20469;-68
2022/07/23 08:38:21;;;;;;;9.03;8.20;;;24.10;96.30;;;;;;5094075;28;20481;-68
2022/07/23 08:40:50;;;;;;;9.50;8.30;;;24.10;96.10;;;;;;5094238;28;20472;-68
2022/07/23 08:43:18;;;;;;;8.90;8.10;;;24.00;96.60;;;;;;5094112;28;20470;-68
2022/07/23 08:45:47;;;;;;;9.50;8.53;;;24.30;97.50;;;;;;5093969;28;20479;-68
2022/07/23 08:48:16;;;;;;;9.40;8.60;;;24.60;96.50;;;;;;5094126;28;20447;-68
2022/07/23 08:50:46;;;;;;;8.97;8.17;;;24.70;96.30;;;;;;5094080;28;20805;-68
2022/07/23 08:53:14;;;;;;;8.13;7.53;;;25.00;95.90;;;;;;5093791;28;20537;-68
2022/07/23 08:55:44;;;;;;;9.00;8.20;;;25.50;94.30;;;;;;5093731;28;20501;-69
2022/07/23 08:58:11;;;;;;;9.10;8.30;;;26.20;93.80;;;;;;5093924;28;20993;-68
2022/07/23 09:00:38;;;;;;;8.77;8.07;;;27.40;91.30;;;;;;5093944;28;20858;-68
2022/07/23 09:03:05;;;;;;;9.40;8.50;;;28.40;88.70;;;;;;5093594;28;20439;-68
2022/07/23 09:05:32;;;;;;;9.20;8.50;;;29.30;84.10;;;;;;5093563;28;20956;-68
2022/07/23 09:08:11;;;;;;;8.60;8.00;;;30.60;79.20;;;;;;5093777;28;20530;-68
2022/07/23 09:10:49;;;;;;;8.43;7.83;;;32.30;72.40;;;;;;5093730;28;20942;-68
2022/07/23 09:13:29;;;;;;;8.47;7.87;;;32.70;67.50;;;;;;5093773;28;20455;-69
2022/07/23 09:15:59;;;;;;;7.70;7.10;;;33.60;61.70;;;;;;5093460;28;20867;-69
2022/07/23 09:18:34;;;;;;;8.40;7.80;;;34.50;60.20;;;;;;5093077;28;20471;-69
2022/07/23 09:21:14;;;;;;;8.63;7.93;;;34.70;57.30;;;;;;5093661;28;20439;-69
2022/07/23 09:23:44;;;;;;;8.00;7.40;;;35.60;56.50;;;;;;5093631;28;20456;-68
2022/07/23 09:26:34;;;;;;;7.93;7.33;;;35.70;53.40;;;;;;5093555;28;20436;-69
2022/07/23 09:29:04;;;;;;;7.97;7.47;;;36.20;52.00;;;;;;5093670;28;20440;-69
2022/07/23 09:31:42;;;;;;;8.53;7.97;;;36.20;51.70;;;;;;5093552;28;20464;-69
2022/07/23 09:34:12;;;;;;;8.70;8.03;;;36.10;50.70;;;;;;5093403;28;20483;-67
2022/07/23 09:36:39;;;;;;;8.87;8.27;;;35.50;51.30;;;;;;5093537;28;20468;-67
2022/07/23 09:39:08;;;;;;;8.37;7.77;;;35.30;51.90;;;;;;5093556;28;20472;-67
2022/07/23 09:41:37;;;;;;;8.83;8.20;;;35.90;51.40;;;;;;5093449;28;20471;-67
2022/07/23 09:44:13;;;;;;;9.00;8.30;;;35.70;51.00;;;;;;5093270;28;20503;-67
2022/07/23 09:46:41;;;;;;;8.73;8.00;;;35.20;50.80;;;;;;5093310;28;20435;-67
2022/07/23 09:49:17;;;;;;;9.60;8.90;;;35.00;51.50;;;;;;5093474;28;20440;-67
2022/07/23 09:51:53;;;;;;;8.80;8.17;;;34.70;51.70;;;;;;5093505;28;20573;-66
2022/07/23 09:54:36;;;;;;;8.83;8.13;;;34.30;51.80;;;;;;5092810;28;20566;-67
2022/07/23 09:57:06;;;;;;;8.47;7.87;;;34.60;51.30;;;;;;5093424;28;20441;-67
2022/07/23 09:59:35;;;;;;;8.40;7.80;;;35.60;50.00;;;;;;5093333;28;21030;-67
2022/07/23 10:02:02;;;;;;;8.87;8.17;;;35.20;50.50;;;;;;5093249;28;20471;-67
2022/07/23 10:04:30;;;;;;;8.27;7.70;;;35.60;49.90;;;;;;5092933;28;20456;-69
2022/07/23 10:06:59;;;;;;;9.27;8.57;;;35.10;49.70;;;;;;5093206;28;20471;-69
2022/07/23 10:09:30;;;;;;;9.20;8.40;;;34.60;50.20;;;;;;5093272;28;20468;-69
2022/07/23 10:12:08;;;;;;;8.20;7.70;;;34.30;51.00;;;;;;5093265;28;20831;-68
2022/07/23 10:14:35;;;;;;;8.50;7.80;;;35.10;49.80;;;;;;5092820;28;20515;-68
2022/07/23 10:17:03;;;;;;;8.83;8.23;;;34.80;50.10;;;;;;5093205;28;20475;-68
2022/07/23 10:19:30;;;;;;;9.50;8.80;;;34.20;51.00;;;;;;5093106;28;20859;-68
2022/07/23 10:22:00;;;;;;;9.87;9.07;;;33.70;51.10;;;;;;5093156;28;20471;-68
2022/07/23 10:24:41;;;;;;;8.40;7.70;;;33.50;52.60;;;;;;5092988;28;20810;-68
2022/07/23 10:27:38;;;;;;;8.80;8.20;;;33.80;51.30;;;;;;5093094;28;20455;-69
2022/07/23 10:30:07;;;;;;;9.10;8.47;;;33.70;51.20;;;;;;5093287;28;20444;-69
2022/07/23 10:32:41;;;;;;;9.20;8.50;;;33.30;51.80;;;;;;5096036;28;20795;-69
2022/07/23 10:35:18;;;;;;;8.07;7.53;;;32.60;52.90;;;;;;5096189;28;20515;-68
2022/07/23 10:37:49;;;;;;;7.90;7.40;;;32.90;54.60;;;;;;5096566;28;20475;-69
2022/07/23 10:40:17;;;;;;;9.63;8.83;;;33.70;52.50;;;;;;5096525;28;20789;-69
2022/07/23 10:42:47;;;;;;;8.27;7.70;;;34.20;51.40;;;;;;5096457;28;20444;-69
2022/07/23 10:45:31;;;;;;;8.50;7.83;;;33.90;49.80;;;;;;5096223;28;20578;-69
2022/07/23 10:48:14;;;;;;;8.40;7.80;;;34.00;49.80;;;;;;5096470;28;20447;-69
2022/07/23 10:50:42;;;;;;;8.93;8.23;;;34.00;50.30;;;;;;5096347;28;20437;-69
2022/07/23 10:53:13;;;;;;;8.90;8.23;;;33.00;51.70;;;;;;5096065;28;20494;-69
2022/07/23 10:55:46;;;;;;;8.40;7.80;;;33.10;52.90;;;;;;5095816;28;20516;-68
2022/07/23 10:58:19;;;;;;;8.00;7.40;;;32.20;53.70;;;;;;5096547;28;20477;-69
2022/07/23 11:00:46;;;;;;;8.77;8.17;;;32.10;51.90;;;;;;5096205;28;20443;-68
2022/07/23 11:03:35;;;;;;;8.73;8.00;;;31.40;54.40;;;;;;5095982;28;20836;-68
2022/07/23 11:06:02;;;;;;;8.83;8.23;;;30.40;56.60;;;;;;5095903;28;20444;-68
2022/07/23 11:08:29;;;;;;;8.90;8.30;;;30.10;59.40;;;;;;5095858;28;20930;-68
2022/07/23 11:11:09;;;;;;;9.50;8.70;;;30.10;59.30;;;;;;5095944;28;20475;-68
2022/07/23 11:13:48;;;;;;;8.70;8.00;;;30.10;59.80;;;;;;5095531;28;20471;-68
2022/07/23 11:16:19;;;;;;;8.43;7.63;;;29.90;59.70;;;;;;5095909;28;20475;-68
2022/07/23 11:19:08;;;;;;;8.30;7.60;;;30.30;56.40;;;;;;5095752;28;20472;-68
2022/07/23 11:21:46;;;;;;;8.60;8.00;;;30.40;56.00;;;;;;5095767;28;20538;-69
2022/07/23 11:24:15;;;;;;;9.03;8.33;;;29.50;57.70;;;;;;5095256;28;20489;-68
2022/07/23 11:26:46;;;;;;;8.60;8.00;;;28.90;59.90;;;;;;5095637;28;20481;-68
2022/07/23 11:29:55;;;;;;;9.13;8.43;;;28.90;60.70;;;;;;5095554;28;20541;-69
2022/07/23 11:32:32;;;;;;;9.20;8.50;;;29.20;61.00;;;;;;5095490;28;20473;-68
2022/07/23 11:34:59;;;;;;;9.63;8.90;;;29.20;62.60;;;;;;5095248;28;20980;-69
2022/07/23 11:37:35;;;;;;;9.33;8.53;;;29.30;64.30;;;;;;5095420;28;20476;-68
2022/07/23 11:40:04;;;;;;;9.30;8.60;;;29.20;62.80;;;;;;5095448;28;20465;-68
2022/07/23 11:42:31;;;;;;;8.20;7.60;;;29.10;63.80;;;;;;5094922;28;20443;-68
2022/07/23 11:44:58;;;;;;;9.23;8.53;;;28.90;64.40;;;;;;5095012;28;20487;-68
2022/07/23 11:47:28;;;;;;;9.00;8.40;;;28.90;63.30;;;;;;5095292;28;20473;-68
2022/07/23 11:49:56;;;;;;;8.80;8.20;;;28.60;64.40;;;;;;5095517;28;20551;-68
2022/07/23 11:52:24;;;;;;;10.33;9.50;;;28.80;65.40;;;;;;5095156;28;20854;-68
2022/07/23 11:54:54;;;;;;;9.10;8.40;;;29.10;64.30;;;;;;5094438;28;20570;-68
2022/07/23 11:57:25;;;;;;;9.33;8.60;;;29.40;63.70;;;;;;5095037;28;20532;-68
2022/07/23 11:59:56;;;;;;;9.40;8.57;;;29.60;62.90;;;;;;5095187;28;20527;-68
2022/07/23 12:02:24;;;;;;;8.80;8.20;;;29.20;63.90;;;;;;5095010;28;20854;-68
2022/07/23 12:04:54;;;;;;;9.10;8.20;;;29.20;63.80;;;;;;5094752;28;20543;-68
2022/07/23 12:07:29;;;;;;;8.70;8.10;;;28.90;64.20;;;;;;5094814;28;20482;-68
2022/07/23 12:09:57;;;;;;;9.57;8.77;;;28.90;65.10;;;;;;5094811;28;20486;-68
2022/07/23 12:12:24;;;;;;;9.40;8.70;;;29.00;64.80;;;;;;5094732;28;20498;-68
2022/07/23 12:14:53;;;;;;;10.70;9.80;;;28.80;65.30;;;;;;5094258;28;21069;-68
2022/07/23 12:17:21;;;;;;;9.50;8.70;;;28.60;65.70;;;;;;5094727;28;20438;-68
2022/07/23 12:19:49;;;;;;;9.43;8.73;;;28.50;66.40;;;;;;5094663;28;20448;-68
2022/07/23 12:22:17;;;;;;;9.97;9.27;;;28.60;66.20;;;;;;5094524;28;20974;-68
2022/07/23 12:24:58;;;;;;;9.70;8.90;;;29.10;66.70;;;;;;5094423;28;20788;-69
2022/07/23 12:27:26;;;;;;;10.30;9.50;;;29.40;64.70;;;;;;5094494;28;20452;-68
2022/07/23 12:29:53;;;;;;;9.77;9.00;;;29.60;63.70;;;;;;5094478;28;20471;-69
2022/07/23 12:32:22;;;;;;;9.80;9.00;;;29.80;63.40;;;;;;5094461;28;20472;-69
2022/07/23 12:34:50;;;;;;;9.90;9.10;;;29.90;64.00;;;;;;5093825;28;21002;-69
2022/07/23 12:37:33;;;;;;;9.70;8.87;;;30.00;63.10;;;;;;5094809;28;20790;-68
2022/07/23 12:40:15;;;;;;;10.20;9.40;;;30.20;61.60;;;;;;5094375;28;20472;-68
2022/07/23 12:42:43;;;;;;;8.90;8.30;;;30.10;59.90;;;;;;5094063;28;20483;-68
2022/07/23 12:45:12;;;;;;;10.03;9.37;;;30.10;61.10;;;;;;5093724;28;20502;-68
2022/07/23 12:47:59;;;;;;;9.70;9.00;;;30.00;60.10;;;;;;5094127;28;20813;-68
2022/07/23 12:50:44;;;;;;;10.30;9.50;;;30.00;59.80;;;;;;5093808;28;20452;-69
2022/07/23 12:53:15;;;;;;;9.63;8.93;;;29.90;62.60;;;;;;5093377;28;20495;-69